PHTO/ITO METAR and TAF weather

Enter ICAO airport designator
Station Type Date Time Source
PHTO METAR 2024/07/23 18:31 UTC NOAA

PHTO 231831Z 18004KT 10SM SCT019 26/23 A3005 RMK AO2 T02610228


Station Type Date Time Source
PHTO Decoded METAR 2024/07/23 18:31 UTC NOAA

HILO INTERNATIONAL AIRPORT, HI, United States (PHTO) 19-43N 155-03W 12M
Jul 23, 2024 - 02:31 PM EDT / 2024.07.23 1831 UTC
Wind: from the S (180 degrees) at 5 MPH (4 KT):0
Visibility: 10 mile(s):0
Sky conditions: partly cloudy
Temperature: 79.0 F (26.1 C)
Dew Point: 73.0 F (22.8 C)
Relative Humidity: 82%
Pressure (altimeter): 30.05 in. Hg (1017 hPa)
ob: PHTO 231831Z 18004KT 10SM SCT019 26/23 A3005 RMK AO2 T02610228
cycle: 18

Station Type Date Time Source
PHTO TAF 2024/07/23 18:22 UTC NOAA